createdAt,value
2023-02-16T00:01:42.042Z,100.00
2023-02-16T00:04:31.601Z,100.00
2023-02-16T00:06:58.367Z,100.00
2023-02-16T00:09:25.380Z,100.00
2023-02-16T00:12:11.858Z,100.00
2023-02-16T00:14:39.919Z,100.00
2023-02-16T00:17:07.186Z,100.00
2023-02-16T00:19:39.850Z,100.00
2023-02-16T00:22:07.823Z,100.00
2023-02-16T00:24:34.518Z,100.00
2023-02-16T00:27:01.485Z,100.00
2023-02-16T00:29:30.884Z,100.00
2023-02-16T00:31:59.504Z,100.00
2023-02-16T00:34:34.134Z,100.00
2023-02-16T00:37:04.357Z,100.00
2023-02-16T00:39:31.449Z,100.00
2023-02-16T00:42:01.933Z,100.00
2023-02-16T00:44:42.458Z,100.00
2023-02-16T00:47:30.329Z,100.00
2023-02-16T00:49:57.036Z,100.00
2023-02-16T00:52:29.470Z,100.00
2023-02-16T00:54:57.376Z,100.00
2023-02-16T00:57:25.301Z,100.00
2023-02-16T01:00:16.817Z,100.00
2023-02-16T01:02:44.866Z,100.00
2023-02-16T01:05:12.172Z,100.00
2023-02-16T01:07:57.585Z,100.00
2023-02-16T01:10:44.066Z,100.00
2023-02-16T01:13:11.642Z,100.00
2023-02-16T01:15:39.325Z,100.00
2023-02-16T01:18:06.807Z,100.00
2023-02-16T01:20:36.298Z,100.00
2023-02-16T01:23:03.236Z,100.00
2023-02-16T01:25:30.603Z,100.00
2023-02-16T01:27:57.511Z,100.00
2023-02-16T01:30:26.235Z,100.00
2023-02-16T01:32:53.394Z,100.00
2023-02-16T01:35:28.368Z,100.00
2023-02-16T01:37:55.008Z,100.00
2023-02-16T01:40:41.235Z,100.00
2023-02-16T01:43:26.562Z,100.00
2023-02-16T01:46:12.333Z,100.00
2023-02-16T01:48:39.095Z,100.00
2023-02-16T01:51:17.263Z,100.00
2023-02-16T01:53:48.800Z,100.00
2023-02-16T01:56:24.837Z,100.00
2023-02-16T01:58:56.859Z,100.00
2023-02-16T02:01:29.755Z,100.00
2023-02-16T02:04:14.876Z,100.00
2023-02-16T02:06:41.948Z,100.00
2023-02-16T02:09:14.242Z,100.00
2023-02-16T02:11:53.752Z,100.00
2023-02-16T02:14:27.053Z,100.00
2023-02-16T02:16:59.635Z,100.00
2023-02-16T02:19:26.307Z,100.00
2023-02-16T02:22:30.344Z,100.00
2023-02-16T02:25:15.168Z,100.00
2023-02-16T02:27:59.086Z,100.00
2023-02-16T02:30:34.891Z,100.00
2023-02-16T02:33:14.838Z,100.00
2023-02-16T02:35:41.416Z,100.00
2023-02-16T02:38:10.786Z,100.00
2023-02-16T02:41:14.630Z,100.00
2023-02-16T02:44:04.431Z,100.00
2023-02-16T02:46:35.463Z,100.00
2023-02-16T02:49:02.264Z,100.00
2023-02-16T02:51:29.050Z,100.00
2023-02-16T02:54:20.105Z,100.00
2023-02-16T02:57:19.745Z,100.00
2023-02-16T03:00:12.637Z,100.00
2023-02-16T03:02:42.102Z,100.00
2023-02-16T03:05:12.148Z,100.00
2023-02-16T03:07:48.471Z,100.00
2023-02-16T03:10:46.986Z,100.00
2023-02-16T03:13:21.079Z,100.00
2023-02-16T03:15:55.985Z,100.00
2023-02-16T03:18:44.731Z,100.00
2023-02-16T03:21:33.005Z,100.00
2023-02-16T03:24:22.221Z,100.00
2023-02-16T03:27:09.453Z,100.00
2023-02-16T03:29:38.078Z,100.00
2023-02-16T03:32:05.861Z,100.00
2023-02-16T03:34:35.255Z,100.00
2023-02-16T03:37:02.688Z,100.00
2023-02-16T03:39:29.958Z,100.00
2023-02-16T03:41:58.205Z,100.00
2023-02-16T03:44:25.357Z,100.00
2023-02-16T03:46:52.263Z,100.00
2023-02-16T03:49:20.027Z,100.00
2023-02-16T03:51:47.286Z,100.00
2023-02-16T03:54:14.205Z,100.00
2023-02-16T03:56:40.938Z,100.00
2023-02-16T03:59:07.607Z,100.00
2023-02-16T04:01:34.467Z,100.00
2023-02-16T04:04:01.286Z,100.00
2023-02-16T04:06:28.005Z,100.00
2023-02-16T04:08:54.779Z,100.00
2023-02-16T04:11:40.152Z,100.00
2023-02-16T04:14:06.912Z,100.00
2023-02-16T04:16:33.558Z,100.00
2023-02-16T04:19:00.238Z,100.00
2023-02-16T04:21:26.907Z,100.00
2023-02-16T04:23:53.578Z,100.00
2023-02-16T04:26:20.265Z,100.00
2023-02-16T04:28:46.903Z,100.00
2023-02-16T04:31:13.689Z,100.00
2023-02-16T04:33:40.483Z,100.00
2023-02-16T04:36:07.685Z,100.00
2023-02-16T04:38:34.335Z,100.00
2023-02-16T04:41:01.126Z,100.00
2023-02-16T04:43:27.909Z,100.00
2023-02-16T04:45:54.595Z,100.00
2023-02-16T04:48:21.382Z,100.00
2023-02-16T04:50:48.116Z,100.00
2023-02-16T04:53:14.794Z,100.00
2023-02-16T04:55:48.359Z,100.00
2023-02-16T04:58:16.059Z,100.00
2023-02-16T05:00:42.888Z,100.00
2023-02-16T05:03:09.692Z,100.00
2023-02-16T05:05:36.414Z,100.00
2023-02-16T05:08:03.377Z,100.00
2023-02-16T05:10:30.081Z,100.00
2023-02-16T05:13:15.484Z,100.00
2023-02-16T05:15:42.668Z,100.00
2023-02-16T05:18:09.307Z,100.00
2023-02-16T05:20:54.384Z,100.00
2023-02-16T05:23:21.065Z,100.00
2023-02-16T05:25:47.751Z,100.00
2023-02-16T05:28:14.452Z,100.00
2023-02-16T05:30:41.199Z,100.00
2023-02-16T05:33:07.869Z,100.00
2023-02-16T05:35:35.209Z,100.00
2023-02-16T05:38:01.847Z,100.00
2023-02-16T05:40:28.514Z,100.00
2023-02-16T05:42:55.647Z,100.00
2023-02-16T05:45:22.271Z,100.00
2023-02-16T05:47:48.992Z,100.00
2023-02-16T05:50:16.537Z,100.00
2023-02-16T05:52:43.201Z,100.00
2023-02-16T05:55:09.949Z,100.00
2023-02-16T05:57:36.650Z,100.00
2023-02-16T06:00:04.902Z,100.00
2023-02-16T06:02:31.612Z,100.00
2023-02-16T06:04:58.315Z,100.00
2023-02-16T06:07:25.095Z,100.00
2023-02-16T06:09:51.767Z,100.00
2023-02-16T06:12:18.469Z,100.00
2023-02-16T06:14:45.198Z,100.00
2023-02-16T06:17:11.879Z,100.00
2023-02-16T06:19:38.582Z,100.00
2023-02-16T06:22:05.291Z,100.00
2023-02-16T06:24:31.934Z,100.00
2023-02-16T06:26:58.678Z,100.00
2023-02-16T06:29:25.427Z,100.00
2023-02-16T06:31:52.285Z,100.00
2023-02-16T06:34:19.108Z,100.00
2023-02-16T06:36:45.815Z,100.00
2023-02-16T06:39:12.536Z,100.00
2023-02-16T06:41:40.974Z,100.00
2023-02-16T06:44:13.602Z,100.00
2023-02-16T06:46:42.281Z,100.00
2023-02-16T06:49:12.594Z,100.00
2023-02-16T06:51:39.756Z,100.00
2023-02-16T06:54:06.932Z,100.00
2023-02-16T06:56:33.710Z,100.00
2023-02-16T06:59:00.372Z,100.00
2023-02-16T07:01:27.140Z,100.00
2023-02-16T07:03:55.593Z,100.00
2023-02-16T07:06:26.767Z,100.00
2023-02-16T07:08:53.897Z,100.00
2023-02-16T07:11:20.958Z,100.00
2023-02-16T07:13:48.080Z,100.00
2023-02-16T07:16:15.636Z,100.00
2023-02-16T07:18:42.561Z,100.00
2023-02-16T07:21:09.208Z,100.00
2023-02-16T07:23:35.968Z,100.00
2023-02-16T07:26:02.728Z,100.00
2023-02-16T07:28:30.567Z,100.00
2023-02-16T07:30:57.397Z,100.00
2023-02-16T07:33:24.086Z,100.00
2023-02-16T07:35:50.782Z,100.00
2023-02-16T07:38:17.447Z,100.00
2023-02-16T07:40:44.291Z,100.00
2023-02-16T07:43:10.996Z,100.00
2023-02-16T07:45:37.789Z,100.00
2023-02-16T07:48:04.936Z,100.00
2023-02-16T07:50:31.570Z,100.00
2023-02-16T07:52:58.303Z,98.32
2023-02-16T07:55:24.973Z,92.47
2023-02-16T07:57:55.441Z,90.37
2023-02-16T08:00:22.577Z,94.65
2023-02-16T08:02:50.062Z,99.14
2023-02-16T08:05:16.996Z,93.02
2023-02-16T08:07:45.676Z,89.74
2023-02-16T08:10:13.726Z,85.65
2023-02-16T08:12:40.422Z,84.72
2023-02-16T08:15:07.969Z,85.11
2023-02-16T08:17:35.767Z,92.69
2023-02-16T08:20:03.760Z,94.47
2023-02-16T08:22:30.867Z,99.14
2023-02-16T08:24:57.565Z,95.76
2023-02-16T08:27:24.893Z,100.00
2023-02-16T08:29:52.129Z,100.00
2023-02-16T08:32:19.680Z,95.52
2023-02-16T08:34:46.422Z,84.12
2023-02-16T08:37:13.923Z,88.05
2023-02-16T08:39:41.516Z,97.90
2023-02-16T08:42:11.022Z,100.00
2023-02-16T08:44:37.688Z,95.47
2023-02-16T08:47:04.395Z,90.83
2023-02-16T08:49:31.124Z,93.37
2023-02-16T08:51:58.945Z,92.11
2023-02-16T08:54:30.327Z,93.00
2023-02-16T08:56:59.873Z,93.79
2023-02-16T08:59:28.910Z,98.12
2023-02-16T09:01:56.972Z,95.38
2023-02-16T09:04:24.746Z,91.86
2023-02-16T09:06:52.509Z,94.87
2023-02-16T09:09:20.196Z,91.39
2023-02-16T09:11:47.375Z,100.00
2023-02-16T09:14:15.593Z,93.82
2023-02-16T09:16:45.810Z,97.50
2023-02-16T09:19:19.146Z,100.00
2023-02-16T09:21:47.018Z,100.00
2023-02-16T09:24:13.750Z,98.77
2023-02-16T09:26:44.459Z,89.13
2023-02-16T09:29:12.626Z,92.72
2023-02-16T09:31:39.875Z,96.41
2023-02-16T09:34:14.715Z,86.53
2023-02-16T09:36:41.560Z,84.17
2023-02-16T09:39:09.083Z,82.52
2023-02-16T09:41:53.296Z,79.32
2023-02-16T09:44:39.665Z,76.50
2023-02-16T09:47:22.443Z,79.89
2023-02-16T09:49:49.906Z,82.49
2023-02-16T09:52:27.284Z,79.23
2023-02-16T09:55:00.035Z,75.80
2023-02-16T09:57:46.462Z,73.10
2023-02-16T10:00:31.265Z,72.59
2023-02-16T10:03:23.780Z,73.87
2023-02-16T10:06:22.264Z,70.79
2023-02-16T10:09:00.557Z,72.65
2023-02-16T10:11:45.696Z,74.92
2023-02-16T10:14:18.331Z,70.60
2023-02-16T10:17:11.252Z,69.47
2023-02-16T10:19:43.759Z,69.16
2023-02-16T10:22:17.655Z,68.15
2023-02-16T10:24:59.750Z,66.36
2023-02-16T10:27:36.944Z,64.92
2023-02-16T10:30:20.887Z,64.57
2023-02-16T10:33:04.260Z,63.96
2023-02-16T10:35:42.932Z,64.03
2023-02-16T10:38:27.802Z,65.72
2023-02-16T10:41:13.302Z,65.37
2023-02-16T10:43:56.928Z,64.58
2023-02-16T10:46:30.624Z,63.61
2023-02-16T10:49:01.562Z,63.01
2023-02-16T10:51:33.810Z,63.70
2023-02-16T10:54:33.185Z,62.96
2023-02-16T10:57:04.272Z,59.81
2023-02-16T10:59:41.206Z,60.69
2023-02-16T11:02:26.187Z,59.67
2023-02-16T11:04:55.182Z,56.21
2023-02-16T11:07:25.253Z,55.80
2023-02-16T11:09:55.552Z,57.13
2023-02-16T11:12:38.999Z,57.39
2023-02-16T11:15:08.369Z,56.94
2023-02-16T11:17:57.172Z,56.48
2023-02-16T11:20:32.794Z,55.88
2023-02-16T11:23:17.640Z,57.19
2023-02-16T11:26:10.769Z,57.37
2023-02-16T11:28:48.769Z,57.90
2023-02-16T11:31:28.887Z,55.62
2023-02-16T11:33:59.875Z,54.50
2023-02-16T11:36:35.996Z,53.98
2023-02-16T11:39:05.886Z,53.35
2023-02-16T11:41:33.984Z,51.94
2023-02-16T11:44:03.117Z,51.89
2023-02-16T11:46:39.997Z,50.95
2023-02-16T11:49:39.167Z,49.87
2023-02-16T11:52:23.936Z,48.72
2023-02-16T11:54:57.660Z,48.54
2023-02-16T11:57:31.182Z,48.22
2023-02-16T12:00:00.298Z,46.71
2023-02-16T12:02:36.011Z,48.68
2023-02-16T12:05:27.278Z,46.88
2023-02-16T12:08:06.588Z,47.14
2023-02-16T12:10:42.706Z,46.89
2023-02-16T12:13:18.003Z,47.50
2023-02-16T12:15:51.138Z,48.63
2023-02-16T12:18:31.823Z,48.39
2023-02-16T12:21:39.084Z,48.02
2023-02-16T12:24:43.405Z,47.62
2023-02-16T12:27:22.214Z,45.94
2023-02-16T12:30:11.784Z,45.21
2023-02-16T12:33:06.395Z,45.37
2023-02-16T12:35:58.504Z,44.59
2023-02-16T12:38:25.326Z,46.82
2023-02-16T12:41:00.942Z,47.13
2023-02-16T12:43:44.786Z,47.16
2023-02-16T12:46:18.760Z,47.11
2023-02-16T12:48:57.811Z,46.61
2023-02-16T12:51:35.657Z,46.28
2023-02-16T12:54:17.625Z,46.42
2023-02-16T12:56:54.925Z,47.00
2023-02-16T12:59:49.148Z,45.82
2023-02-16T13:02:40.512Z,44.99
2023-02-16T13:05:16.284Z,44.67
2023-02-16T13:07:47.112Z,45.02
2023-02-16T13:10:51.965Z,44.55
2023-02-16T13:13:25.763Z,45.57
2023-02-16T13:16:01.762Z,45.69
2023-02-16T13:18:36.603Z,45.30
2023-02-16T13:21:08.287Z,44.68
2023-02-16T13:23:53.249Z,44.67
2023-02-16T13:26:38.200Z,45.63
2023-02-16T13:29:08.110Z,44.88
2023-02-16T13:31:34.984Z,42.85
2023-02-16T13:34:21.194Z,43.49
2023-02-16T13:37:18.834Z,44.24
2023-02-16T13:40:10.322Z,45.58
2023-02-16T13:43:21.933Z,46.81
2023-02-16T13:45:54.182Z,46.52
2023-02-16T13:48:54.866Z,46.73
2023-02-16T13:51:25.442Z,46.57
2023-02-16T13:53:59.320Z,47.08
2023-02-16T13:56:29.478Z,47.12
2023-02-16T13:58:58.450Z,47.79
2023-02-16T14:01:43.108Z,47.48
2023-02-16T14:04:13.163Z,48.87
2023-02-16T14:06:42.917Z,49.43
2023-02-16T14:09:12.375Z,48.92
2023-02-16T14:12:03.119Z,48.79
2023-02-16T14:14:41.948Z,49.05
2023-02-16T14:17:17.703Z,49.28
2023-02-16T14:20:09.174Z,49.13
2023-02-16T14:22:51.813Z,48.92
2023-02-16T14:25:24.408Z,48.87
2023-02-16T14:27:52.596Z,48.64
2023-02-16T14:30:34.333Z,48.69
2023-02-16T14:33:12.905Z,48.63
2023-02-16T14:35:42.757Z,49.03
2023-02-16T14:38:29.376Z,49.21
2023-02-16T14:40:58.770Z,49.48
2023-02-16T14:43:30.148Z,49.86
2023-02-16T14:46:24.850Z,50.67
2023-02-16T14:49:29.122Z,50.41
2023-02-16T14:52:16.994Z,51.12
2023-02-16T14:55:23.161Z,51.08
2023-02-16T14:58:12.960Z,51.49
2023-02-16T15:00:55.153Z,51.45
2023-02-16T15:03:25.325Z,51.36
2023-02-16T15:06:06.283Z,51.76
2023-02-16T15:08:48.617Z,51.97
2023-02-16T15:12:03.999Z,52.44
2023-02-16T15:14:34.941Z,52.21
2023-02-16T15:17:07.189Z,52.36
2023-02-16T15:19:34.052Z,53.04
2023-02-16T15:22:11.628Z,52.96
2023-02-16T15:24:38.347Z,52.65
2023-02-16T15:27:05.232Z,53.09
2023-02-16T15:29:33.418Z,53.33
2023-02-16T15:32:01.668Z,53.12
2023-02-16T15:34:38.002Z,53.45
2023-02-16T15:37:29.874Z,53.41
2023-02-16T15:40:23.165Z,53.50
2023-02-16T15:42:45.462Z,53.43
2023-02-16T15:45:38.748Z,53.88
2023-02-16T15:48:16.678Z,53.98
2023-02-16T15:50:45.180Z,54.05
2023-02-16T15:53:14.039Z,54.01
2023-02-16T15:55:48.153Z,54.38
2023-02-16T15:58:15.903Z,54.78
2023-02-16T16:00:45.113Z,54.76
2023-02-16T16:03:18.905Z,55.63
2023-02-16T16:05:59.008Z,55.82
2023-02-16T16:08:28.783Z,56.42
2023-02-16T16:10:56.769Z,56.75
2023-02-16T16:13:27.799Z,56.31
2023-02-16T16:16:02.294Z,56.45
2023-02-16T16:18:44.493Z,57.02
2023-02-16T16:21:15.851Z,57.33
2023-02-16T16:24:07.047Z,57.31
2023-02-16T16:26:49.661Z,57.74
2023-02-16T16:29:51.576Z,58.13
2023-02-16T16:32:25.002Z,58.28
2023-02-16T16:34:51.787Z,59.62
2023-02-16T16:37:27.147Z,59.95
2023-02-16T16:40:06.583Z,60.95
2023-02-16T16:42:39.357Z,61.48
2023-02-16T16:45:20.172Z,61.51
2023-02-16T16:47:52.176Z,60.75
2023-02-16T16:50:21.677Z,60.27
2023-02-16T16:52:50.361Z,60.33
2023-02-16T16:55:23.938Z,60.54
2023-02-16T16:58:05.948Z,60.69
2023-02-16T17:00:36.495Z,60.93
2023-02-16T17:03:05.321Z,60.24
2023-02-16T17:05:32.420Z,60.07
2023-02-16T17:07:59.197Z,60.91
2023-02-16T17:10:25.929Z,60.98
2023-02-16T17:12:56.367Z,61.37
2023-02-16T17:15:31.699Z,61.72
2023-02-16T17:17:59.010Z,62.07
2023-02-16T17:20:25.917Z,62.08
2023-02-16T17:22:52.729Z,62.07
2023-02-16T17:25:19.642Z,61.90
2023-02-16T17:27:46.523Z,61.85
2023-02-16T17:30:13.782Z,61.49
2023-02-16T17:32:40.476Z,61.42
2023-02-16T17:35:07.636Z,61.15
2023-02-16T17:37:35.654Z,61.31
2023-02-16T17:40:04.630Z,61.39
2023-02-16T17:42:31.876Z,61.52
2023-02-16T17:44:58.648Z,61.49
2023-02-16T17:47:25.440Z,61.91
2023-02-16T17:49:52.113Z,62.14
2023-02-16T17:52:18.859Z,62.43
2023-02-16T17:54:45.639Z,62.93
2023-02-16T17:57:13.066Z,63.39
2023-02-16T17:59:41.466Z,62.93
2023-02-16T18:02:11.227Z,63.20
2023-02-16T18:04:41.149Z,62.77
2023-02-16T18:07:12.249Z,62.79
2023-02-16T18:09:38.915Z,62.92
2023-02-16T18:12:05.754Z,63.19
2023-02-16T18:14:34.698Z,63.27
2023-02-16T18:17:01.632Z,63.82
2023-02-16T18:19:30.317Z,64.19
2023-02-16T18:21:57.017Z,64.77
2023-02-16T18:24:23.876Z,65.28
2023-02-16T18:26:50.567Z,65.74
2023-02-16T18:29:17.932Z,66.51
2023-02-16T18:31:45.091Z,67.12
2023-02-16T18:34:11.824Z,67.89
2023-02-16T18:36:39.099Z,69.01
2023-02-16T18:39:07.433Z,69.80
2023-02-16T18:41:35.267Z,71.68
2023-02-16T18:44:02.177Z,73.50
2023-02-16T18:46:28.913Z,75.47
2023-02-16T18:48:55.764Z,76.74
2023-02-16T18:51:26.087Z,78.09
2023-02-16T18:53:52.738Z,79.43
2023-02-16T18:56:19.912Z,79.17
2023-02-16T18:58:46.737Z,79.89
2023-02-16T19:01:25.377Z,81.58
2023-02-16T19:03:52.029Z,82.23
2023-02-16T19:06:18.665Z,82.84
2023-02-16T19:08:46.320Z,84.24
2023-02-16T19:11:13.355Z,85.39
2023-02-16T19:13:40.052Z,84.62
2023-02-16T19:16:07.200Z,83.45
2023-02-16T19:18:34.422Z,83.04
2023-02-16T19:21:08.393Z,81.29
2023-02-16T19:23:35.414Z,80.03
2023-02-16T19:26:12.006Z,83.86
2023-02-16T19:28:40.098Z,84.07
2023-02-16T19:31:09.330Z,84.19
2023-02-16T19:33:36.306Z,83.53
2023-02-16T19:36:08.891Z,87.27
2023-02-16T19:38:36.714Z,87.42
2023-02-16T19:41:34.308Z,85.47
2023-02-16T19:44:01.301Z,87.16
2023-02-16T19:46:29.112Z,89.40
2023-02-16T19:48:57.844Z,90.65
2023-02-16T19:51:25.123Z,90.24
2023-02-16T19:53:52.122Z,91.47
2023-02-16T19:56:23.008Z,94.42
2023-02-16T19:58:50.807Z,97.78
2023-02-16T20:01:20.843Z,98.21
2023-02-16T20:03:49.033Z,99.97
2023-02-16T20:06:17.648Z,100.00
2023-02-16T20:08:46.063Z,100.00
2023-02-16T20:11:13.325Z,100.00
2023-02-16T20:13:40.287Z,100.00
2023-02-16T20:16:08.953Z,100.00
2023-02-16T20:18:36.894Z,100.00
2023-02-16T20:21:10.869Z,100.00
2023-02-16T20:23:38.189Z,100.00
2023-02-16T20:26:09.214Z,100.00
2023-02-16T20:28:36.239Z,100.00
2023-02-16T20:31:03.834Z,100.00
2023-02-16T20:33:30.512Z,100.00
2023-02-16T20:35:57.181Z,100.00
2023-02-16T20:38:23.870Z,100.00
2023-02-16T20:40:50.568Z,100.00
2023-02-16T20:43:20.928Z,100.00
2023-02-16T20:45:49.528Z,100.00
2023-02-16T20:48:16.480Z,100.00
2023-02-16T20:50:43.271Z,100.00
2023-02-16T20:53:09.986Z,100.00
2023-02-16T20:55:36.602Z,100.00
2023-02-16T20:58:03.578Z,100.00
2023-02-16T21:00:30.450Z,100.00
2023-02-16T21:02:57.157Z,100.00
2023-02-16T21:05:23.856Z,100.00
2023-02-16T21:07:50.578Z,100.00
2023-02-16T21:10:17.475Z,100.00
2023-02-16T21:12:44.521Z,100.00
2023-02-16T21:15:11.535Z,100.00
2023-02-16T21:17:38.717Z,100.00
2023-02-16T21:20:07.436Z,100.00
2023-02-16T21:22:34.984Z,100.00
2023-02-16T21:25:01.794Z,100.00
2023-02-16T21:27:28.491Z,100.00
2023-02-16T21:29:55.269Z,100.00
2023-02-16T21:32:22.027Z,100.00
2023-02-16T21:34:48.778Z,100.00
2023-02-16T21:37:15.439Z,100.00
2023-02-16T21:40:00.986Z,100.00
2023-02-16T21:42:27.735Z,100.00
2023-02-16T21:45:12.496Z,100.00
2023-02-16T21:48:02.327Z,100.00
2023-02-16T21:50:30.406Z,100.00
2023-02-16T21:52:58.223Z,100.00
2023-02-16T21:55:43.686Z,100.00
2023-02-16T21:58:10.957Z,100.00
2023-02-16T22:00:41.881Z,100.00
2023-02-16T22:03:09.254Z,100.00
2023-02-16T22:05:36.363Z,100.00
2023-02-16T22:08:03.058Z,100.00
2023-02-16T22:10:29.979Z,100.00
2023-02-16T22:12:57.603Z,100.00
2023-02-16T22:15:26.030Z,100.00
2023-02-16T22:17:53.348Z,100.00
2023-02-16T22:20:20.211Z,100.00
2023-02-16T22:22:46.916Z,100.00
2023-02-16T22:25:14.102Z,100.00
2023-02-16T22:27:41.371Z,100.00
2023-02-16T22:30:08.751Z,100.00
2023-02-16T22:32:35.467Z,100.00
2023-02-16T22:35:02.167Z,100.00
2023-02-16T22:37:28.831Z,100.00
2023-02-16T22:39:55.586Z,100.00
2023-02-16T22:42:23.286Z,100.00
2023-02-16T22:44:49.954Z,100.00
2023-02-16T22:47:17.159Z,100.00
2023-02-16T22:49:43.830Z,100.00
2023-02-16T22:52:13.420Z,100.00
2023-02-16T22:54:40.097Z,100.00
2023-02-16T22:57:07.282Z,100.00
2023-02-16T22:59:34.212Z,100.00
2023-02-16T23:02:00.889Z,100.00
2023-02-16T23:04:27.682Z,100.00
2023-02-16T23:06:54.421Z,100.00
2023-02-16T23:09:22.142Z,100.00
2023-02-16T23:11:49.812Z,100.00
2023-02-16T23:14:17.617Z,100.00
2023-02-16T23:16:46.486Z,100.00
2023-02-16T23:19:15.843Z,100.00
2023-02-16T23:21:42.717Z,100.00
2023-02-16T23:24:14.887Z,100.00
2023-02-16T23:26:42.070Z,100.00
2023-02-16T23:29:09.577Z,100.00
2023-02-16T23:31:39.161Z,100.00
2023-02-16T23:34:07.823Z,100.00
2023-02-16T23:36:35.767Z,100.00
2023-02-16T23:39:12.104Z,100.00
2023-02-16T23:41:39.734Z,100.00
2023-02-16T23:44:07.978Z,100.00
2023-02-16T23:46:37.710Z,100.00
2023-02-16T23:49:04.394Z,100.00
2023-02-16T23:51:31.087Z,100.00
2023-02-16T23:53:57.925Z,100.00
2023-02-16T23:56:27.529Z,100.00
2023-02-16T23:58:58.342Z,100.00
